Time;durP1;ratioP1;P1;durP2;ratioP2;P2;SDS_P1;SDS_P2;PMS_P1;PMS_P2;Temp;Humidity;BMP_temperature;BMP_pressure;BME280_temperature;BME280_humidity;BME280_pressure;Samples;Min_cycle;Max_cycle;Signal;HPM_P1;HPM_P2
2022/01/05 00:00:05;;;;;;;;;;;2.20;99.90;;;;;;5080375;28;20365;-89
2022/01/05 00:02:31;;;;;;;;;;;2.20;99.90;;;;;;5078997;28;20073;-81
2022/01/05 00:04:57;;;;;;;;;;;2.10;99.90;;;;;;5067787;22;20015;-82
2022/01/05 00:07:22;;;;;;;;;;;2.40;99.90;;;;;;5060867;28;19974;-82
2022/01/05 00:09:48;;;;;;;;;;;2.20;99.90;;;;;;5052350;23;19921;-89
2022/01/05 00:12:14;;;;;;;;;;;2.20;99.90;;;;;;5052615;22;19921;-89
2022/01/05 00:14:40;;;;;;;;;;;2.20;99.90;;;;;;5081680;28;19920;-89
2022/01/05 00:17:09;;;;;;;;;;;2.20;99.90;;;;;;5105725;22;19927;-80
2022/01/05 00:19:34;;;;;;;;;;;2.20;99.90;;;;;;5078235;22;19927;-89
2022/01/05 00:22:02;;;;;;;;;;;2.20;99.90;;;;;;5090542;22;20010;-80
2022/01/05 00:24:27;;;;;;;;;;;2.20;99.90;;;;;;5078796;22;20336;-89
2022/01/05 00:26:53;;;;;;;;;;;2.20;99.90;;;;;;5085709;22;19947;-82
2022/01/05 00:29:19;;;;;;;;;;;2.20;99.90;;;;;;5089438;22;20263;-89
2022/01/05 00:31:45;;;;;;;;;;;2.30;99.90;;;;;;5088136;22;19920;-82
2022/01/05 00:34:10;;;;;;;;;;;2.30;99.90;;;;;;5084795;22;19928;-88
2022/01/05 00:36:36;;;;;;;;;;;2.30;99.90;;;;;;5089599;22;20286;-81
2022/01/05 00:39:02;;;;;;;;;;;2.30;99.90;;;;;;5085516;22;20317;-88
2022/01/05 00:41:27;;;;;;;;;;;2.30;99.90;;;;;;5068988;22;19920;-89
2022/01/05 00:43:53;;;;;;;;;;;2.30;99.90;;;;;;5090425;22;19924;-81
2022/01/05 00:46:19;;;;;;;;;;;2.30;99.90;;;;;;5084884;22;19927;-88
2022/01/05 00:48:44;;;;;;;;;;;2.40;99.90;;;;;;5090825;22;19920;-84
2022/01/05 00:51:10;;;;;;;;;;;2.30;99.90;;;;;;5102349;22;19924;-81
2022/01/05 00:53:36;;;;;;;;;;;2.40;99.90;;;;;;5093262;22;19970;-81
2022/01/05 00:58:32;;;;;;;;;;;2.50;99.90;;;;;;5106438;22;19920;-81
2022/01/05 01:01:04;;;;;;;;;;;2.50;99.90;;;;;;5093694;22;20026;-89
2022/01/05 01:03:29;;;;;;;;;;;2.50;99.90;;;;;;5086424;22;20370;-89
2022/01/05 01:06:02;;;;;;;;;;;2.60;99.90;;;;;;5092332;22;19920;-81
2022/01/05 01:08:29;;;;;;;;;;;2.60;99.90;;;;;;5087276;22;19924;-88
2022/01/05 01:10:54;;;;;;;;;;;2.60;99.90;;;;;;5080188;28;19920;-82
2022/01/05 01:13:20;;;;;;;;;;;2.60;99.90;;;;;;5072729;22;19939;-81
2022/01/05 01:15:47;;;;;;;;;;;2.60;99.90;;;;;;5091279;22;19965;-81
2022/01/05 01:18:13;;;;;;;;;;;2.70;99.90;;;;;;5098793;22;19946;-81
2022/01/05 01:20:38;;;;;;;;;;;3.30;99.90;;;;;;5092255;22;20378;-81
2022/01/05 01:23:04;;;;;;;;;;;2.80;99.90;;;;;;5093601;22;19924;-82
2022/01/05 01:25:29;;;;;;;;;;;3.20;99.90;;;;;;5083784;22;19924;-89
2022/01/05 01:27:55;;;;;;;;;;;2.80;99.90;;;;;;5090710;22;19920;-88
2022/01/05 01:30:20;;;;;;;;;;;2.70;99.90;;;;;;5094107;22;19920;-81
2022/01/05 01:32:46;;;;;;;;;;;2.70;99.90;;;;;;5088601;22;20010;-81
2022/01/05 01:35:12;;;;;;;;;;;2.90;99.90;;;;;;5087904;22;19965;-81
2022/01/05 01:37:37;;;;;;;;;;;2.70;99.90;;;;;;5084362;22;19983;-89
2022/01/05 01:40:05;;;;;;;;;;;2.60;99.90;;;;;;5091985;22;20282;-81
2022/01/05 01:42:31;;;;;;;;;;;2.60;99.90;;;;;;5081651;28;19927;-82
2022/01/05 01:45:03;;;;;;;;;;;2.70;99.90;;;;;;5111663;22;19920;-89
2022/01/05 01:47:28;;;;;;;;;;;2.70;99.90;;;;;;5070475;22;19927;-89
2022/01/05 01:50:00;;;;;;;;;;;2.70;99.90;;;;;;5086165;22;19920;-89
2022/01/05 01:52:26;;;;;;;;;;;2.60;99.90;;;;;;5085088;22;19934;-82
2022/01/05 01:54:52;;;;;;;;;;;2.60;99.90;;;;;;5092098;22;19920;-82
2022/01/05 01:57:18;;;;;;;;;;;2.50;99.90;;;;;;5078626;22;20423;-81
2022/01/05 01:59:44;;;;;;;;;;;2.50;99.90;;;;;;5084113;22;19954;-81
2022/01/05 02:02:10;;;;;;;;;;;2.60;99.90;;;;;;5092275;22;19920;-82
2022/01/05 02:04:36;;;;;;;;;;;2.60;99.90;;;;;;5090411;22;19924;-81
2022/01/05 02:07:05;;;;;;;;;;;2.70;99.90;;;;;;5099915;22;19920;-81
2022/01/05 02:09:30;;;;;;;;;;;2.80;99.90;;;;;;5089966;22;20024;-83
2022/01/05 02:12:02;;;;;;;;;;;2.80;99.90;;;;;;5087189;22;19948;-88
2022/01/05 02:14:28;;;;;;;;;;;2.80;99.90;;;;;;5079105;22;19928;-89
2022/01/05 02:16:55;;;;;;;;;;;2.80;99.90;;;;;;5086954;22;19920;-88
2022/01/05 02:19:21;;;;;;;;;;;3.40;99.90;;;;;;5095053;22;19955;-89
2022/01/05 02:21:46;;;;;;;;;;;3.30;99.90;;;;;;5095308;22;19974;-82
2022/01/05 02:24:12;;;;;;;;;;;2.90;99.90;;;;;;5083995;22;19927;-89
2022/01/05 02:26:38;;;;;;;;;;;3.00;99.90;;;;;;5060906;28;19928;-82
2022/01/05 02:29:04;;;;;;;;;;;3.20;99.90;;;;;;5101789;22;19927;-81
2022/01/05 02:31:30;;;;;;;;;;;3.40;99.90;;;;;;5092446;22;19944;-82
2022/01/05 02:33:55;;;;;;;;;;;3.30;99.90;;;;;;5087331;22;19927;-88
2022/01/05 02:36:21;;;;;;;;;;;3.30;99.90;;;;;;5086654;22;19956;-89
2022/01/05 02:38:47;;;;;;;;;;;3.40;99.90;;;;;;5091409;22;19920;-90
2022/01/05 02:41:13;;;;;;;;;;;3.40;99.90;;;;;;5076744;22;19927;-82
2022/01/05 02:43:40;;;;;;;;;;;3.40;99.90;;;;;;5090066;22;19920;-82
2022/01/05 02:46:08;;;;;;;;;;;3.40;99.90;;;;;;5072894;22;19955;-82
2022/01/05 02:48:34;;;;;;;;;;;3.40;99.90;;;;;;5071913;22;19927;-82
2022/01/05 02:51:00;;;;;;;;;;;3.40;99.90;;;;;;5094221;22;19987;-82
2022/01/05 02:53:25;;;;;;;;;;;4.20;99.90;;;;;;5091251;22;19920;-82
2022/01/05 02:55:51;;;;;;;;;;;3.50;99.90;;;;;;5083068;22;19955;-81
2022/01/05 02:58:17;;;;;;;;;;;3.50;99.90;;;;;;5087372;22;19974;-82
2022/01/05 03:00:43;;;;;;;;;;;3.50;99.90;;;;;;5084007;22;19920;-81
2022/01/05 03:03:09;;;;;;;;;;;3.40;99.90;;;;;;5097959;22;19954;-81
2022/01/05 03:05:34;;;;;;;;;;;3.40;99.90;;;;;;5091222;22;20030;-81
2022/01/05 03:08:06;;;;;;;;;;;3.40;99.90;;;;;;5090734;22;19963;-89
2022/01/05 03:10:32;;;;;;;;;;;3.50;99.90;;;;;;5043736;22;1182494;-89
2022/01/05 03:12:59;;;;;;;;;;;3.40;99.90;;;;;;5106845;22;20053;-81
2022/01/05 03:15:25;;;;;;;;;;;3.40;99.90;;;;;;5077195;22;19927;-82
2022/01/05 03:17:51;;;;;;;;;;;3.80;99.90;;;;;;5086242;22;19999;-82
2022/01/05 03:20:20;;;;;;;;;;;3.40;99.90;;;;;;5096794;22;19959;-81
2022/01/05 03:22:46;;;;;;;;;;;3.40;99.90;;;;;;5089550;22;19951;-82
2022/01/05 03:25:16;;;;;;;;;;;3.40;99.90;;;;;;5105316;22;19928;-81
2022/01/05 03:27:42;;;;;;;;;;;3.40;99.90;;;;;;5108553;22;19920;-82
2022/01/05 03:30:08;;;;;;;;;;;3.50;99.90;;;;;;5095475;22;19920;-82
2022/01/05 03:32:45;;;;;;;;;;;3.50;99.90;;;;;;5091871;22;20390;-82
2022/01/05 03:35:11;;;;;;;;;;;3.50;99.90;;;;;;5102765;22;19963;-81
2022/01/05 03:37:37;;;;;;;;;;;3.60;99.90;;;;;;5093763;22;20311;-89
2022/01/05 03:40:06;;;;;;;;;;;3.60;99.90;;;;;;5104095;22;19920;-81
2022/01/05 03:42:31;;;;;;;;;;;3.70;99.90;;;;;;5082001;22;19920;-82
2022/01/05 03:44:57;;;;;;;;;;;3.70;99.90;;;;;;5088088;22;19926;-82
2022/01/05 03:47:22;;;;;;;;;;;3.80;99.90;;;;;;5086414;22;19935;-88
2022/01/05 03:49:48;;;;;;;;;;;3.80;99.90;;;;;;5064421;28;19959;-82
2022/01/05 03:52:13;;;;;;;;;;;4.00;99.90;;;;;;5089644;22;19920;-82
2022/01/05 03:54:39;;;;;;;;;;;3.70;99.90;;;;;;5089089;22;19956;-88
2022/01/05 03:57:05;;;;;;;;;;;3.70;99.90;;;;;;5081908;22;20346;-82
2022/01/05 03:59:30;;;;;;;;;;;3.50;99.90;;;;;;5095647;22;19920;-88
2022/01/05 04:02:03;;;;;;;;;;;4.10;99.90;;;;;;5096204;22;20010;-88
2022/01/05 04:04:28;;;;;;;;;;;3.40;99.90;;;;;;5090244;22;19923;-89
2022/01/05 04:06:54;;;;;;;;;;;3.30;99.90;;;;;;5112076;22;19964;-88
2022/01/05 04:09:19;;;;;;;;;;;3.60;99.90;;;;;;5092110;22;20006;-81
2022/01/05 04:11:45;;;;;;;;;;;3.30;99.90;;;;;;5089331;22;20023;-88
2022/01/05 04:14:12;;;;;;;;;;;3.20;99.90;;;;;;5103148;22;19919;-81
2022/01/05 04:16:37;;;;;;;;;;;3.60;99.90;;;;;;5083675;28;19920;-81
2022/01/05 04:19:03;;;;;;;;;;;3.20;99.90;;;;;;5084865;28;19965;-81
2022/01/05 04:21:28;;;;;;;;;;;3.80;99.90;;;;;;5090314;22;19920;-82
2022/01/05 04:23:54;;;;;;;;;;;3.20;99.90;;;;;;5083411;28;20019;-88
2022/01/05 04:26:20;;;;;;;;;;;3.80;99.90;;;;;;5090121;22;20858;-88
2022/01/05 04:28:45;;;;;;;;;;;3.70;99.90;;;;;;5089003;22;19920;-88
2022/01/05 04:31:11;;;;;;;;;;;3.20;99.90;;;;;;5095534;22;19920;-83
2022/01/05 04:33:36;;;;;;;;;;;3.20;99.90;;;;;;5091932;22;19960;-82
2022/01/05 04:36:08;;;;;;;;;;;2.90;99.90;;;;;;5077740;22;19920;-81
2022/01/05 04:38:34;;;;;;;;;;;3.20;99.90;;;;;;5071341;22;19956;-82
2022/01/05 04:41:00;;;;;;;;;;;3.20;99.90;;;;;;5090107;22;19942;-82
2022/01/05 04:43:25;;;;;;;;;;;3.20;99.90;;;;;;5083967;22;19920;-88
2022/01/05 04:45:51;;;;;;;;;;;3.30;99.90;;;;;;5085929;22;19943;-82
2022/01/05 04:48:17;;;;;;;;;;;3.20;99.90;;;;;;5106311;22;20271;-81
2022/01/05 04:50:42;;;;;;;;;;;3.20;99.90;;;;;;5086826;22;19927;-82
2022/01/05 04:53:11;;;;;;;;;;;3.30;99.90;;;;;;5093798;22;19946;-90
2022/01/05 04:55:37;;;;;;;;;;;3.20;99.90;;;;;;5092949;22;19937;-82
2022/01/05 04:58:02;;;;;;;;;;;4.10;99.90;;;;;;5086219;22;19920;-81
2022/01/05 05:00:28;;;;;;;;;;;3.40;99.90;;;;;;5084220;22;19982;-88
2022/01/05 05:02:53;;;;;;;;;;;3.50;99.90;;;;;;5061801;28;19920;-88
2022/01/05 05:05:19;;;;;;;;;;;3.50;99.90;;;;;;5086974;22;19978;-88
2022/01/05 05:07:44;;;;;;;;;;;3.60;99.90;;;;;;5092968;22;19973;-82
2022/01/05 05:10:10;;;;;;;;;;;4.30;99.90;;;;;;5078108;22;19920;-82
2022/01/05 05:12:36;;;;;;;;;;;3.60;99.90;;;;;;5103323;22;19920;-83
2022/01/05 05:15:01;;;;;;;;;;;3.60;99.90;;;;;;5094693;22;19926;-82
2022/01/05 05:17:27;;;;;;;;;;;3.70;99.90;;;;;;5087989;22;19951;-89
2022/01/05 05:19:52;;;;;;;;;;;3.70;99.90;;;;;;5091548;22;20389;-84
2022/01/05 05:22:18;;;;;;;;;;;3.70;99.90;;;;;;5079634;22;20023;-82
2022/01/05 05:24:43;;;;;;;;;;;4.30;99.90;;;;;;5081058;28;19920;-81
2022/01/05 05:27:09;;;;;;;;;;;4.30;99.90;;;;;;5096359;22;19927;-82
2022/01/05 05:29:35;;;;;;;;;;;3.80;99.90;;;;;;5084343;28;19927;-82
2022/01/05 05:32:00;;;;;;;;;;;3.90;99.90;;;;;;5100484;22;19920;-81
2022/01/05 05:34:26;;;;;;;;;;;3.90;99.90;;;;;;5084303;22;19921;-82
2022/01/05 05:36:51;;;;;;;;;;;4.00;99.90;;;;;;5090376;22;19973;-82
2022/01/05 05:39:17;;;;;;;;;;;4.00;99.90;;;;;;5094585;22;19920;-88
2022/01/05 05:41:43;;;;;;;;;;;4.00;99.90;;;;;;5091486;22;19920;-82
2022/01/05 05:44:08;;;;;;;;;;;3.90;99.90;;;;;;5091667;22;19920;-83
2022/01/05 05:46:34;;;;;;;;;;;3.90;99.90;;;;;;5085495;22;19921;-81
2022/01/05 05:49:05;;;;;;;;;;;3.80;99.90;;;;;;5096814;22;20353;31
2022/01/05 05:51:31;;;;;;;;;;;3.80;99.90;;;;;;5018082;22;19967;-88
2022/01/05 05:53:58;;;;;;;;;;;3.80;99.90;;;;;;5107234;22;19920;-81
2022/01/05 05:56:24;;;;;;;;;;;3.80;99.90;;;;;;5079908;22;19921;-89
2022/01/05 05:58:50;;;;;;;;;;;3.80;99.90;;;;;;5087219;22;20409;-89
2022/01/05 06:01:15;;;;;;;;;;;3.80;99.90;;;;;;5089935;22;19919;-82
2022/01/05 06:03:41;;;;;;;;;;;3.80;99.90;;;;;;5107736;22;19927;-89
2022/01/05 06:06:07;;;;;;;;;;;3.80;99.90;;;;;;5090152;22;19919;-82
2022/01/05 06:08:32;;;;;;;;;;;4.60;99.90;;;;;;5094111;22;19934;-82
2022/01/05 06:10:58;;;;;;;;;;;3.80;99.90;;;;;;5078585;22;19920;-82
2022/01/05 06:13:23;;;;;;;;;;;4.50;99.90;;;;;;5094029;22;19921;-85
2022/01/05 06:15:49;;;;;;;;;;;3.90;99.90;;;;;;5109368;22;19928;-82
2022/01/05 06:18:14;;;;;;;;;;;3.90;99.90;;;;;;5102399;22;19926;-81
2022/01/05 06:20:40;;;;;;;;;;;3.90;99.90;;;;;;5082986;28;19920;-81
2022/01/05 06:23:06;;;;;;;;;;;3.90;99.90;;;;;;5105823;22;20014;-82
2022/01/05 06:25:31;;;;;;;;;;;4.00;99.90;;;;;;5082418;22;19958;-91
2022/01/05 06:27:57;;;;;;;;;;;4.00;99.90;;;;;;5088353;22;19927;-81
2022/01/05 06:30:22;;;;;;;;;;;3.90;99.90;;;;;;5089715;22;19977;-88
2022/01/05 06:32:48;;;;;;;;;;;4.40;99.90;;;;;;5096450;22;19920;-82
2022/01/05 06:35:14;;;;;;;;;;;4.30;99.90;;;;;;5108532;22;19931;-82
2022/01/05 06:37:40;;;;;;;;;;;3.70;99.90;;;;;;5095318;22;19920;-82
2022/01/05 06:40:06;;;;;;;;;;;4.30;99.90;;;;;;5101281;22;19926;-82
2022/01/05 06:42:32;;;;;;;;;;;3.60;99.90;;;;;;5095119;22;20290;-89
2022/01/05 06:45:00;;;;;;;;;;;4.20;99.90;;;;;;5100954;22;19920;-81
2022/01/05 06:47:26;;;;;;;;;;;3.60;99.90;;;;;;5093725;22;20011;-83
2022/01/05 06:49:51;;;;;;;;;;;3.60;99.90;;;;;;5091716;22;20402;-82
2022/01/05 06:52:17;;;;;;;;;;;3.60;99.90;;;;;;5073426;22;20043;-82
2022/01/05 06:54:43;;;;;;;;;;;3.70;99.90;;;;;;5086188;22;19920;-82
2022/01/05 06:57:09;;;;;;;;;;;3.70;99.90;;;;;;5103686;22;20002;-82
2022/01/05 06:59:35;;;;;;;;;;;3.80;99.90;;;;;;5088819;22;19928;-89
2022/01/05 07:02:01;;;;;;;;;;;3.80;99.90;;;;;;5092911;22;19925;-82
2022/01/05 07:04:27;;;;;;;;;;;3.80;99.90;;;;;;5072010;22;19920;-89
2022/01/05 07:06:52;;;;;;;;;;;4.50;99.90;;;;;;5091090;22;19924;-82
2022/01/05 07:09:18;;;;;;;;;;;4.00;99.90;;;;;;5087125;22;19931;-82
2022/01/05 07:11:43;;;;;;;;;;;4.00;99.90;;;;;;5093262;22;19920;-82
2022/01/05 07:14:09;;;;;;;;;;;4.10;99.90;;;;;;5094812;22;19920;-82
2022/01/05 07:16:34;;;;;;;;;;;4.50;99.90;;;;;;5084144;28;19981;-82
2022/01/05 07:19:06;;;;;;;;;;;4.20;99.90;;;;;;5089029;22;20294;-90
2022/01/05 07:21:33;;;;;;;;;;;4.30;99.90;;;;;;5089130;22;19919;-82
2022/01/05 07:24:01;;;;;;;;;;;4.30;99.90;;;;;;5111529;22;19991;-81
2022/01/05 07:26:27;;;;;;;;;;;4.40;99.90;;;;;;5078117;22;20457;-82
2022/01/05 07:28:53;;;;;;;;;;;4.40;99.90;;;;;;5080349;22;19924;-85
2022/01/05 07:31:19;;;;;;;;;;;4.70;99.90;;;;;;5090479;22;19927;-88
2022/01/05 07:33:45;;;;;;;;;;;4.50;99.90;;;;;;5081384;22;19920;-83
2022/01/05 07:36:10;;;;;;;;;;;4.60;99.90;;;;;;5105706;22;19920;-82
2022/01/05 07:38:36;;;;;;;;;;;5.10;99.90;;;;;;5096665;22;19926;-82
2022/01/05 07:41:04;;;;;;;;;;;4.60;99.90;;;;;;5103698;22;19970;-81
2022/01/05 07:43:30;;;;;;;;;;;4.60;99.90;;;;;;5072058;22;19924;-82
2022/01/05 07:46:02;;;;;;;;;;;4.60;99.90;;;;;;5090124;22;19920;-82
2022/01/05 07:48:28;;;;;;;;;;;4.60;99.90;;;;;;5088149;22;19920;-90
2022/01/05 07:50:54;;;;;;;;;;;4.70;99.90;;;;;;5103288;28;19927;-88
2022/01/05 07:53:20;;;;;;;;;;;5.20;99.90;;;;;;5097882;22;19931;-88
2022/01/05 07:55:45;;;;;;;;;;;4.60;99.90;;;;;;5097431;28;19920;-88
2022/01/05 07:58:11;;;;;;;;;;;5.10;99.90;;;;;;5093650;28;19920;-83
2022/01/05 08:00:36;;;;;;;;;;;4.70;99.90;;;;;;5095687;28;19920;-82
2022/01/05 08:03:02;;;;;;;;;;;4.50;99.90;;;;;;5099275;28;20006;-83
2022/01/05 08:05:28;;;;;;;;;;;5.00;99.90;;;;;;5090866;22;20018;-83
2022/01/05 08:07:53;;;;;;;;;;;4.50;99.90;;;;;;5085755;28;19919;-89
2022/01/05 08:10:19;;;;;;;;;;;5.20;99.90;;;;;;5091673;22;19920;-82
2022/01/05 08:12:44;;;;;;;;;;;4.60;99.90;;;;;;5088704;22;19920;-85
2022/01/05 08:15:10;;;;;;;;;;;4.60;99.90;;;;;;5081414;22;19926;-83
2022/01/05 08:17:36;;;;;;;;;;;4.90;99.90;;;;;;5108047;22;19966;-82
2022/01/05 08:20:03;;;;;;;;;;;4.80;99.90;;;;;;5066535;28;19921;-82
2022/01/05 08:22:28;;;;;;;;;;;5.30;99.90;;;;;;5094624;22;19928;-83
2022/01/05 08:24:54;;;;;;;;;;;4.80;99.90;;;;;;5086023;28;19927;-83
2022/01/05 08:27:19;;;;;;;;;;;4.70;99.90;;;;;;5111565;22;19924;-82
2022/01/05 08:29:45;;;;;;;;;;;4.70;99.90;;;;;;5097267;22;20379;-86
2022/01/05 08:32:11;;;;;;;;;;;4.60;99.90;;;;;;5099751;22;19920;-81
2022/01/05 08:34:36;;;;;;;;;;;4.60;99.90;;;;;;5085694;28;19951;-82
2022/01/05 08:37:06;;;;;;;;;;;4.60;99.90;;;;;;5107855;22;19920;-80
2022/01/05 08:39:31;;;;;;;;;;;4.40;99.90;;;;;;5081062;22;19924;-81
2022/01/05 08:41:57;;;;;;;;;;;4.50;99.90;;;;;;5089636;22;20362;-81
2022/01/05 08:44:22;;;;;;;;;;;4.50;99.90;;;;;;5090538;22;19920;-90
2022/01/05 08:46:48;;;;;;;;;;;4.60;99.90;;;;;;5099214;28;19927;-81
2022/01/05 08:49:15;;;;;;;;;;;4.60;99.90;;;;;;5099881;28;19924;-81
2022/01/05 08:51:41;;;;;;;;;;;4.60;99.90;;;;;;5106931;22;20397;-82
2022/01/05 08:54:07;;;;;;;;;;;5.00;99.90;;;;;;5081891;28;19920;-81
2022/01/05 08:56:33;;;;;;;;;;;4.80;99.90;;;;;;5082384;28;19924;-81
2022/01/05 08:58:58;;;;;;;;;;;5.50;99.90;;;;;;5081614;28;19924;-81
2022/01/05 09:01:24;;;;;;;;;;;4.90;99.90;;;;;;5097810;22;19943;-82
2022/01/05 09:03:52;;;;;;;;;;;4.90;99.90;;;;;;5075896;22;20011;-82
2022/01/05 09:06:18;;;;;;;;;;;5.00;99.90;;;;;;5089944;22;19920;-82
2022/01/05 09:08:43;;;;;;;;;;;5.00;99.90;;;;;;5088046;22;19920;-89
2022/01/05 09:11:09;;;;;;;;;;;5.00;99.90;;;;;;5119734;22;19927;-81
2022/01/05 09:13:35;;;;;;;;;;;5.00;99.90;;;;;;5076938;22;19952;-89
2022/01/05 09:16:04;;;;;;;;;;;5.00;99.90;;;;;;5108590;22;19942;31
2022/01/05 09:18:29;;;;;;;;;;;5.10;99.90;;;;;;5053119;22;20067;-82
2022/01/05 09:21:01;;;;;;;;;;;5.10;99.90;;;;;;5083009;22;19978;-90
2022/01/05 09:23:27;;;;;;;;;;;5.20;99.90;;;;;;5111664;22;19919;-82
2022/01/05 09:25:54;;;;;;;;;;;5.20;99.90;;;;;;5093620;22;19984;-85
2022/01/05 09:28:19;;;;;;;;;;;5.20;99.90;;;;;;5093462;22;19921;-89
2022/01/05 09:30:46;;;;;;;;;;;5.20;99.90;;;;;;5104710;22;19920;-91
2022/01/05 09:33:13;;;;;;;;;;;5.30;99.90;;;;;;5111402;22;19926;-81
2022/01/05 09:35:38;;;;;;;;;;;5.20;99.90;;;;;;5088856;22;20019;-82
2022/01/05 09:43:14;;;;;;;;;;;5.20;99.90;;;;;;5102410;22;19951;-82
2022/01/05 09:45:46;;;;;;;;;;;5.20;99.90;;;;;;5097949;22;20391;-90
2022/01/05 09:48:31;;;;;;;;;;;5.20;99.90;;;;;;5120742;22;19920;-82
2022/01/05 09:51:05;;;;;;;;;;;5.20;99.90;;;;;;5093366;22;19924;-82
2022/01/05 09:53:31;;;;;;;;;;;5.30;99.90;;;;;;5095602;22;19969;-84
2022/01/05 09:56:04;;;;;;;;;;;5.30;99.90;;;;;;5083923;22;19920;-90
2022/01/05 09:58:30;;;;;;;;;;;5.30;99.90;;;;;;5089995;22;19931;-82
2022/01/05 10:01:05;;;;;;;;;;;5.30;99.90;;;;;;5044830;23;1353516;-90
2022/01/05 10:03:31;;;;;;;;;;;5.30;99.90;;;;;;5080750;22;19924;-82
2022/01/05 10:06:02;;;;;;;;;;;5.40;99.90;;;;;;5096698;23;19927;-90
2022/01/05 10:08:28;;;;;;;;;;;5.40;99.90;;;;;;5115304;22;19920;-82
2022/01/05 10:10:53;;;;;;;;;;;5.40;99.90;;;;;;5092158;22;19927;-89
2022/01/05 10:13:19;;;;;;;;;;;5.50;99.90;;;;;;5087247;28;19970;-88
2022/01/05 10:15:45;;;;;;;;;;;5.50;99.90;;;;;;5097869;23;19978;-83
2022/01/05 10:18:11;;;;;;;;;;;5.50;99.90;;;;;;5100276;22;19931;-81
2022/01/05 10:20:37;;;;;;;;;;;5.50;99.90;;;;;;5098303;22;20000;-82
2022/01/05 10:23:04;;;;;;;;;;;5.60;99.90;;;;;;5100754;22;19942;-81
2022/01/05 10:25:30;;;;;;;;;;;5.60;99.90;;;;;;5092286;22;20101;-92
2022/01/05 10:27:59;;;;;;;;;;;5.60;99.90;;;;;;5091315;22;19951;-92
2022/01/05 10:30:35;;;;;;;;;;;5.70;99.90;;;;;;5064175;22;20290;-92
2022/01/05 10:33:04;;;;;;;;;;;5.60;99.90;;;;;;5084194;22;19920;-81
2022/01/05 10:35:30;;;;;;;;;;;5.60;99.90;;;;;;5096983;22;19920;-82
2022/01/05 10:38:00;;;;;;;;;;;5.60;99.90;;;;;;5067348;22;19927;-85
2022/01/05 10:40:27;;;;;;;;;;;5.60;99.90;;;;;;5062209;22;19951;-82
2022/01/05 10:42:53;;;;;;;;;;;6.30;99.90;;;;;;5085736;22;19942;-82
2022/01/05 10:45:20;;;;;;;;;;;5.70;99.90;;;;;;5089930;22;20070;-81
2022/01/05 10:48:07;;;;;;;;;;;6.30;99.90;;;;;;5083548;22;20384;-89
2022/01/05 10:50:33;;;;;;;;;;;5.90;99.90;;;;;;5099230;22;19944;-92
2022/01/05 10:52:58;;;;;;;;;;;6.00;99.90;;;;;;5082853;22;19920;-82
2022/01/05 10:55:26;;;;;;;;;;;6.10;99.90;;;;;;5080389;22;19920;-91
2022/01/05 10:58:00;;;;;;;;;;;6.40;99.90;;;;;;5071606;22;19920;-81
2022/01/05 11:00:52;;;;;;;;;;;6.10;99.90;;;;;;5079032;22;19984;-91
2022/01/05 11:03:40;;;;;;;;;;;6.10;99.90;;;;;;5089563;22;19929;-81
2022/01/05 11:06:13;;;;;;;;;;;6.10;99.90;;;;;;5092176;22;19921;-81
2022/01/05 11:08:57;;;;;;;;;;;6.10;99.90;;;;;;5102848;22;20277;-82
2022/01/05 11:11:37;;;;;;;;;;;6.10;99.90;;;;;;5109831;22;19963;-92
2022/01/05 11:14:07;;;;;;;;;;;6.30;99.90;;;;;;5090529;22;19920;-81
2022/01/05 11:16:33;;;;;;;;;;;6.30;99.90;;;;;;5066107;22;20390;-82
2022/01/05 11:19:17;;;;;;;;;;;6.50;99.90;;;;;;5042173;28;19920;-82
2022/01/05 11:21:55;;;;;;;;;;;6.60;99.90;;;;;;5045680;28;20362;-82
2022/01/05 11:24:21;;;;;;;;;;;6.70;99.90;;;;;;5100182;22;19975;-81
2022/01/05 11:26:46;;;;;;;;;;;6.70;99.90;;;;;;5095526;22;19947;-90
2022/01/05 11:29:12;;;;;;;;;;;6.70;99.90;;;;;;5115397;22;19920;-81
2022/01/05 11:31:38;;;;;;;;;;;6.80;99.90;;;;;;5084773;22;19925;-82
2022/01/05 11:34:04;;;;;;;;;;;6.70;99.90;;;;;;5097885;22;19974;-81
2022/01/05 11:36:30;;;;;;;;;;;6.80;99.90;;;;;;5097821;22;20441;-92
2022/01/05 11:39:02;;;;;;;;;;;6.70;99.90;;;;;;5083014;22;19989;-82
2022/01/05 11:41:28;;;;;;;;;;;6.70;99.90;;;;;;5099321;22;19920;-91
2022/01/05 11:43:54;;;;;;;;;;;6.70;99.90;;;;;;5075717;23;20289;-91
2022/01/05 11:46:22;;;;;;;;;;;6.60;99.90;;;;;;5102455;22;19924;-81
2022/01/05 11:48:59;;;;;;;;;;;6.50;99.90;;;;;;5085848;22;19981;-81
2022/01/05 11:51:32;;;;;;;;;;;6.50;99.90;;;;;;5094429;22;19923;-81
2022/01/05 11:54:20;;;;;;;;;;;6.50;99.90;;;;;;5087085;22;19920;-81
2022/01/05 11:57:09;;;;;;;;;;;6.50;99.90;;;;;;5076680;22;19920;-82
2022/01/05 11:59:36;;;;;;;;;;;6.40;99.90;;;;;;5058297;22;20286;-81
2022/01/05 12:02:09;;;;;;;;;;;7.00;99.90;;;;;;5071630;22;19920;-91
2022/01/05 12:04:56;;;;;;;;;;;6.30;99.90;;;;;;5094978;22;19920;-82
2022/01/05 12:07:53;;;;;;;;;;;6.30;99.90;;;;;;5094659;22;19927;-92
2022/01/05 12:10:22;;;;;;;;;;;6.20;99.90;;;;;;5044466;23;19920;-91
2022/01/05 12:12:52;;;;;;;;;;;6.20;99.90;;;;;;5111794;22;19920;-82
2022/01/05 12:15:38;;;;;;;;;;;6.30;99.90;;;;;;5099901;22;19958;-81
2022/01/05 12:18:05;;;;;;;;;;;6.30;99.90;;;;;;5113038;22;19946;-81
2022/01/05 12:20:35;;;;;;;;;;;6.50;99.90;;;;;;5109523;22;19951;-82
2022/01/05 12:23:17;;;;;;;;;;;6.60;99.90;;;;;;5112935;22;20352;-82
2022/01/05 12:26:10;;;;;;;;;;;6.60;99.90;;;;;;5089407;22;20006;-82
2022/01/05 12:28:48;;;;;;;;;;;6.60;99.90;;;;;;5102048;22;19920;-91
2022/01/05 12:31:14;;;;;;;;;;;6.40;99.90;;;;;;5102609;22;19920;-81
2022/01/05 12:33:51;;;;;;;;;;;6.10;99.90;;;;;;5086320;28;20092;-92
2022/01/05 12:36:34;;;;;;;;;;;5.90;99.90;;;;;;5101003;22;20332;-81
2022/01/05 12:39:08;;;;;;;;;;;5.70;99.90;;;;;;5099278;22;19927;-80
2022/01/05 12:41:37;;;;;;;;;;;5.60;99.90;;;;;;5064610;22;20309;-82
2022/01/05 12:44:16;;;;;;;;;;;5.60;99.90;;;;;;5097506;22;19920;-80
2022/01/05 12:46:43;;;;;;;;;;;5.70;99.90;;;;;;5084813;22;20936;-81
2022/01/05 12:49:11;;;;;;;;;;;5.80;99.90;;;;;;5100984;22;19920;-81
2022/01/05 12:51:38;;;;;;;;;;;5.90;99.90;;;;;;5079178;22;20318;-82
2022/01/05 12:54:06;;;;;;;;;;;6.00;99.90;;;;;;5101787;22;19927;-82
2022/01/05 12:56:33;;;;;;;;;;;6.10;99.90;;;;;;5089245;22;19927;-82
2022/01/05 12:59:07;;;;;;;;;;;6.20;99.90;;;;;;5096180;22;19920;-92
2022/01/05 13:01:33;;;;;;;;;;;6.20;99.90;;;;;;5105759;22;19951;-93
2022/01/05 13:04:08;;;;;;;;;;;6.30;99.90;;;;;;5123716;22;19927;-81
2022/01/05 13:06:35;;;;;;;;;;;6.30;99.90;;;;;;5083425;22;20014;-81
2022/01/05 13:09:09;;;;;;;;;;;6.20;99.90;;;;;;5106035;22;19919;31
2022/01/05 13:11:42;;;;;;;;;;;6.20;99.90;;;;;;5064316;22;19945;-82
2022/01/05 13:14:20;;;;;;;;;;;6.20;99.90;;;;;;5097146;22;19927;-81
2022/01/05 13:17:05;;;;;;;;;;;6.20;99.90;;;;;;5083482;22;20007;-81
2022/01/05 13:19:31;;;;;;;;;;;6.30;99.90;;;;;;5096833;22;20251;-81
2022/01/05 13:22:05;;;;;;;;;;;6.50;99.90;;;;;;5096689;22;19927;-92
2022/01/05 13:25:07;;;;;;;;;;;6.70;99.90;;;;;;5092112;22;21444;-86
2022/01/05 13:27:33;;;;;;;;;;;6.90;99.90;;;;;;5065665;22;19988;-81
2022/01/05 13:30:05;;;;;;;;;;;7.10;99.90;;;;;;5072918;22;20001;-92
2022/01/05 13:32:31;;;;;;;;;;;7.30;99.90;;;;;;5098954;22;19920;-81
2022/01/05 13:34:57;;;;;;;;;;;7.80;99.90;;;;;;5079311;22;20393;-92
2022/01/05 13:37:36;;;;;;;;;;;8.20;99.90;;;;;;5079720;22;20718;-81
2022/01/05 13:40:10;;;;;;;;;;;7.70;99.90;;;;;;5081035;22;19920;-81
2022/01/05 13:42:40;;;;;;;;;;;7.20;99.90;;;;;;5081674;22;19920;-81
2022/01/05 13:45:09;;;;;;;;;;;6.70;99.90;;;;;;5107106;22;19927;-80
2022/01/05 13:47:35;;;;;;;;;;;6.40;99.90;;;;;;5088772;22;19978;-81
2022/01/05 13:50:05;;;;;;;;;;;6.20;99.90;;;;;;5091329;22;19927;-81
2022/01/05 13:52:30;;;;;;;;;;;6.10;99.90;;;;;;5100807;22;19931;-81
2022/01/05 13:55:03;;;;;;;;;;;6.00;99.90;;;;;;5069294;22;19920;-81
2022/01/05 13:57:29;;;;;;;;;;;6.20;99.90;;;;;;5092049;22;19920;-82
2022/01/05 13:59:59;;;;;;;;;;;6.40;99.90;;;;;;5082646;22;19920;-82
2022/01/05 14:02:26;;;;;;;;;;;6.40;99.90;;;;;;5041715;28;19921;-81
2022/01/05 14:04:53;;;;;;;;;;;6.30;99.90;;;;;;5087293;22;20294;-81
2022/01/05 14:07:20;;;;;;;;;;;6.10;99.90;;;;;;5087867;22;20008;-81
2022/01/05 14:09:46;;;;;;;;;;;6.10;99.90;;;;;;5078475;22;19920;-81
2022/01/05 14:12:31;;;;;;;;;;;6.00;99.90;;;;;;5080573;22;20298;-81
2022/01/05 14:14:57;;;;;;;;;;;5.90;99.90;;;;;;5095387;22;19920;-81
2022/01/05 14:17:23;;;;;;;;;;;5.90;99.90;;;;;;5092298;22;19987;-81
2022/01/05 14:19:48;;;;;;;;;;;6.30;99.90;;;;;;5094745;22;19950;-81
2022/01/05 14:22:19;;;;;;;;;;;5.70;99.90;;;;;;5099790;22;19927;-81
2022/01/05 14:24:45;;;;;;;;;;;5.70;99.90;;;;;;5082926;22;19920;-81
2022/01/05 14:27:18;;;;;;;;;;;5.60;99.90;;;;;;5113848;22;19920;-82
2022/01/05 14:29:43;;;;;;;;;;;5.50;99.90;;;;;;5100556;22;20034;-81
2022/01/05 14:32:12;;;;;;;;;;;5.50;99.90;;;;;;5071763;22;19920;-81
2022/01/05 14:34:42;;;;;;;;;;;5.50;99.90;;;;;;5071496;22;20465;-81
2022/01/05 14:37:12;;;;;;;;;;;5.40;99.90;;;;;;5082448;22;19920;-81
2022/01/05 14:39:39;;;;;;;;;;;5.30;99.90;;;;;;5090337;22;19920;-81
2022/01/05 14:42:15;;;;;;;;;;;5.30;99.90;;;;;;5091183;22;19951;-81